Time;durP1;ratioP1;P1;durP2;ratioP2;P2;SDS_P1;SDS_P2;PMS_P1;PMS_P2;Temp;Humidity;BMP_temperature;BMP_pressure;BME280_temperature;BME280_humidity;BME280_pressure;Samples;Min_cycle;Max_cycle;Signal;HPM_P1;HPM_P2
2021/09/11 00:00:39;;;;;;;29.67;9.85;;;;;;;14.02;62.42;101412.09;1655338;85;26381;-62
2021/09/11 00:03:14;;;;;;;24.90;10.23;;;;;;;13.99;62.60;101410.15;1648897;87;27592;-62
2021/09/11 00:05:41;;;;;;;25.32;10.08;;;;;;;13.91;62.45;101409.02;1649340;86;25840;-63
2021/09/11 00:08:17;;;;;;;21.33;8.80;;;;;;;13.88;62.40;101405.75;1705056;84;27470;-63
2021/09/11 00:10:47;;;;;;;23.98;10.60;;;;;;;13.82;62.42;101404.97;1713469;82;25476;-61
2021/09/11 00:13:23;;;;;;;;;;;;;;;13.71;62.70;101404.11;1706122;83;25854;-62
2021/09/11 00:15:54;;;;;;;24.20;9.90;;;;;;;13.61;62.71;101396.48;1677977;85;25765;-62
2021/09/11 00:18:30;;;;;;;19.40;9.30;;;;;;;13.56;62.79;101393.36;1686234;84;25700;-63
2021/09/11 00:21:06;;;;;;;25.55;9.50;;;;;;;13.48;63.01;101395.91;1686181;84;27492;-61
2021/09/11 00:23:39;;;;;;;24.87;9.58;;;;;;;13.40;63.00;101397.44;1657394;85;27313;-62
2021/09/11 00:26:10;;;;;;;20.95;10.08;;;;;;;13.34;63.25;101392.57;1722282;82;25797;-62
2021/09/11 00:28:41;;;;;;;30.82;9.88;;;;;;;13.35;63.69;101393.44;1718064;82;27320;-60
2021/09/11 00:31:14;;;;;;;26.45;10.25;;;;;;;13.37;63.69;101396.36;1698319;84;26103;-61
2021/09/11 00:33:49;;;;;;;24.67;10.05;;;;;;;13.37;64.19;101389.59;1696211;84;26412;-64
2021/09/11 00:36:22;;;;;;;25.37;10.95;;;;;;;13.37;64.69;101388.25;1697037;84;25785;-62
2021/09/11 00:39:01;;;;;;;22.67;9.30;;;;;;;13.34;64.11;101389.03;1695678;84;25832;-62
2021/09/11 00:41:37;;;;;;;29.25;10.88;;;;;;;13.35;64.11;101391.58;1692202;84;26846;-60
2021/09/11 00:44:16;;;;;;;34.15;11.22;;;;;;;13.36;64.29;101390.59;1702114;82;25815;-62
2021/09/11 00:46:52;;;;;;;23.98;10.93;;;;;;;13.37;63.98;101390.08;1697698;83;25828;-63
2021/09/11 00:49:29;;;;;;;30.60;11.88;;;;;;;13.37;63.83;101384.67;1715217;83;25474;-61
2021/09/11 00:52:07;;;;;;;35.08;11.30;;;;;;;13.38;63.74;101391.31;1712635;82;25745;-60
2021/09/11 00:54:49;;;;;;;29.10;11.33;;;;;;;13.36;64.26;101390.59;1701870;83;26824;-61
2021/09/11 00:57:26;;;;;;;37.70;12.47;;;;;;;13.38;64.01;101385.91;1673165;84;25780;-60
2021/09/11 01:00:03;;;;;;;33.50;13.10;;;;;;;13.40;64.44;101389.84;1701880;82;26421;-60
2021/09/11 01:02:33;;;;;;;42.93;13.05;;;;;;;13.41;63.88;101391.05;1669871;85;25738;-60
2021/09/11 01:05:00;;;;;;;33.33;11.48;;;;;;;13.41;63.70;101393.75;1663325;85;26570;-60
2021/09/11 01:07:28;;;;;;;38.95;12.55;;;;;;;13.38;63.69;101388.61;1658754;86;26462;-60
2021/09/11 01:09:56;;;;;;;37.98;12.95;;;;;;;13.37;63.43;101388.25;1668049;84;25483;-60
2021/09/11 01:12:23;;;;;;;22.22;11.22;;;;;;;13.40;63.28;101392.55;1673727;84;27575;-60
2021/09/11 01:14:50;;;;;;;30.82;12.47;;;;;;;13.41;63.00;101392.91;1658480;86;25826;-59
2021/09/11 01:17:20;;;;;;;27.20;12.00;;;;;;;13.39;62.86;101389.00;1689528;84;26504;-61
2021/09/11 01:19:47;;;;;;;23.38;11.33;;;;;;;13.38;62.85;101391.31;1679898;83;25817;-60
2021/09/11 01:22:17;;;;;;;37.48;11.33;;;;;;;13.33;62.95;101390.02;1682155;84;25745;-63
2021/09/11 01:24:59;;;;;;;32.03;13.32;;;;;;;13.25;62.94;101390.22;1668907;83;27334;-62
2021/09/11 01:27:28;;;;;;;27.62;11.60;;;;;;;13.20;62.95;101387.06;1699128;83;25748;-62
2021/09/11 01:30:06;;;;;;;27.95;12.15;;;;;;;13.15;63.17;101387.48;1712272;83;25815;-61
2021/09/11 01:32:38;;;;;;;28.38;12.20;;;;;;;13.10;63.50;101384.83;1640757;85;25784;-62
2021/09/11 01:35:08;;;;;;;30.37;12.95;;;;;;;12.99;63.64;101383.09;1682509;83;25752;-62
2021/09/11 01:37:38;;;;;;;31.00;12.20;;;;;;;12.92;63.75;101384.64;1699789;84;27852;-61
2021/09/11 01:40:08;;;;;;;26.33;10.72;;;;;;;12.88;63.99;101380.48;1703610;83;25863;-61
2021/09/11 01:42:38;;;;;;;;;;;;;;;12.83;63.90;101388.52;1714288;83;25685;-61
2021/09/11 01:45:20;;;;;;;27.82;10.23;;;;;;;12.77;63.92;101389.08;1719946;82;26161;-63
2021/09/11 01:47:51;;;;;;;33.25;10.08;;;;;;;12.76;64.49;101394.59;1693754;83;25966;-64
2021/09/11 01:50:21;;;;;;;29.55;11.12;;;;;;;12.76;64.81;101398.64;1684493;84;28640;-59
2021/09/11 01:52:50;;;;;;;25.77;9.75;;;;;;;12.75;64.71;101398.27;1684115;85;26002;-59
2021/09/11 01:55:17;;;;;;;25.10;10.30;;;;;;;12.71;65.05;101399.55;1683968;85;25725;-59
2021/09/11 01:57:46;;;;;;;31.80;9.53;;;;;;;12.71;64.85;101398.20;1684422;85;26604;-60
2021/09/11 02:00:16;;;;;;;20.68;10.08;;;;;;;12.75;64.90;101397.80;1710616;83;25754;-59
2021/09/11 02:02:44;;;;;;;26.12;10.60;;;;;;;12.80;64.91;101394.18;1682322;85;28312;-59
2021/09/11 02:05:13;;;;;;;30.60;10.10;;;;;;;12.87;64.72;101396.33;1682372;83;25755;-59
2021/09/11 02:07:40;;;;;;;21.85;9.95;;;;;;;12.94;64.73;101392.12;1683934;85;25805;-59
2021/09/11 02:10:10;;;;;;;25.77;10.55;;;;;;;12.99;64.59;101390.72;1696899;83;25782;-58
2021/09/11 02:12:39;;;;;;;24.67;10.70;;;;;;;13.07;64.41;101398.12;1721565;82;25815;-60
2021/09/11 02:15:13;;;;;;;23.70;10.20;;;;;;;13.11;64.46;101402.27;1722117;83;26185;-61
2021/09/11 02:17:47;;;;;;;24.95;10.63;;;;;;;13.12;64.37;101402.63;1693804;83;25759;-59
2021/09/11 02:20:15;;;;;;;37.35;10.78;;;;;;;13.12;64.40;101403.98;1722317;83;25663;-62
2021/09/11 02:22:44;;;;;;;28.67;11.33;;;;;;;13.10;63.83;101411.36;1716886;83;25948;-59
2021/09/11 02:25:19;;;;;;;25.55;10.50;;;;;;;13.11;63.77;101414.42;1709685;83;26265;-62
2021/09/11 02:27:48;;;;;;;32.88;12.28;;;;;;;13.09;63.64;101405.59;1719866;83;27616;-59
2021/09/11 02:30:27;;;;;;;33.38;11.12;;;;;;;13.05;63.49;101405.50;1681741;84;25500;-61
2021/09/11 02:32:57;;;;;;;29.07;11.25;;;;;;;13.03;63.35;101401.23;1676670;85;25783;-63
2021/09/11 02:35:27;;;;;;;37.10;12.37;;;;;;;12.99;63.25;101399.30;1684702;84;25805;-61
2021/09/11 02:38:02;;;;;;;43.33;11.65;;;;;;;12.97;63.31;101399.92;1671848;84;25791;-61
2021/09/11 02:40:34;;;;;;;26.75;10.30;;;;;;;12.91;63.20;101402.67;1689175;84;27499;-61
2021/09/11 02:43:32;;;;;;;32.85;11.33;;;;;;;12.90;63.28;101404.17;1684560;84;25424;-61
2021/09/11 02:46:07;;;;;;;23.12;10.58;;;;;;;12.83;63.20;101397.97;1721914;83;25749;-63
2021/09/11 02:48:46;;;;;;;26.62;11.95;;;;;;;12.79;63.27;101395.17;1648637;85;25579;-61
2021/09/11 02:51:18;;;;;;;28.15;10.43;;;;;;;12.74;63.24;101397.44;1672753;85;25334;-63
2021/09/11 02:53:52;;;;;;;22.10;10.40;;;;;;;12.72;63.43;101399.41;1631124;87;26108;-61
2021/09/11 02:56:23;;;;;;;21.07;10.70;;;;;;;12.64;63.58;101411.38;1590059;88;25868;-61
2021/09/11 02:59:20;;;;;;;26.23;11.45;;;;;;;12.57;63.79;101408.34;1619217;86;25772;-61
2021/09/11 03:01:43;;;;;;;35.20;10.05;;;;;;;12.53;63.81;101408.27;1708936;82;25895;-59
2021/09/11 03:04:10;;;;;;;23.95;11.15;;;;;;;12.51;64.31;101409.73;1722702;83;25864;-58
2021/09/11 03:06:37;;;;;;;24.87;10.63;;;;;;;12.48;64.19;101410.02;1720567;83;27486;-58
2021/09/11 03:09:04;;;;;;;24.72;9.13;;;;;;;12.47;64.38;101409.66;1682695;83;25472;-58
2021/09/11 03:11:31;;;;;;;26.80;10.28;;;;;;;12.49;64.92;101413.08;1686719;83;25737;-58
2021/09/11 03:13:58;;;;;;;21.60;10.25;;;;;;;12.49;64.88;101406.34;1710630;83;25805;-57
2021/09/11 03:16:25;;;;;;;18.95;10.70;;;;;;;12.49;64.93;101410.38;1711722;82;25667;-58
2021/09/11 03:18:51;;;;;;;25.95;10.60;;;;;;;12.47;64.85;101411.00;1711673;83;27492;-58
2021/09/11 03:21:18;;;;;;;29.63;10.48;;;;;;;12.48;64.84;101418.59;1711865;83;25782;-60
2021/09/11 03:23:46;;;;;;;31.20;9.90;;;;;;;12.49;64.89;101411.73;1711916;83;25863;-58
2021/09/11 03:26:12;;;;;;;30.55;9.23;;;;;;;12.51;65.51;101410.23;1691010;83;26508;-58
2021/09/11 03:28:39;;;;;;;22.98;9.45;;;;;;;12.51;65.19;101411.59;1678488;84;25967;-57
2021/09/11 03:31:06;;;;;;;28.60;11.20;;;;;;;12.50;64.85;101410.75;1686588;83;27461;-58
2021/09/11 03:33:33;;;;;;;26.77;9.43;;;;;;;12.51;64.75;101412.94;1677446;85;25548;-58
2021/09/11 03:36:00;;;;;;;19.20;9.83;;;;;;;12.51;64.82;101408.38;1677765;85;25722;-59
2021/09/11 03:38:27;;;;;;;25.40;9.65;;;;;;;12.50;64.88;101418.84;1677857;85;26535;-59
2021/09/11 03:40:54;;;;;;;27.70;10.35;;;;;;;12.51;64.89;101416.98;1677674;85;25788;-60
2021/09/11 03:43:21;;;;;;;23.42;9.85;;;;;;;12.49;65.07;101414.43;1677346;85;27461;-59
2021/09/11 03:45:48;;;;;;;20.80;10.60;;;;;;;12.47;64.79;101411.48;1682961;83;25699;-59
2021/09/11 03:48:14;;;;;;;22.45;10.38;;;;;;;12.46;64.72;101407.09;1705590;82;25740;-59
2021/09/11 03:50:42;;;;;;;21.68;10.00;;;;;;;12.42;64.56;101409.17;1704795;82;26881;-59
2021/09/11 03:53:08;;;;;;;27.93;10.50;;;;;;;12.35;64.88;101411.58;1704927;83;25769;-59
2021/09/11 03:55:35;;;;;;;33.85;11.20;;;;;;;12.26;64.56;101409.66;1704484;83;27475;-59
2021/09/11 03:58:02;;;;;;;16.80;9.33;;;;;;;12.23;64.66;101408.56;1704439;84;25813;-58
2021/09/11 04:00:29;;;;;;;25.05;11.38;;;;;;;12.23;64.58;101409.08;1683313;83;25719;-57
2021/09/11 04:02:56;;;;;;;31.95;10.60;;;;;;;12.20;64.58;101412.39;1686008;83;26429;-57
2021/09/11 04:05:23;;;;;;;23.92;10.35;;;;;;;12.18;64.88;101417.05;1711791;83;25722;-59
2021/09/11 04:07:50;;;;;;;21.10;10.18;;;;;;;12.14;64.67;101421.02;1721194;81;27491;-59
2021/09/11 04:10:17;;;;;;;21.02;11.00;;;;;;;12.12;64.70;101420.76;1718515;83;25730;-58
2021/09/11 04:12:44;;;;;;;20.45;10.58;;;;;;;12.11;64.89;101420.39;1699770;83;25721;-58
2021/09/11 04:15:10;;;;;;;27.60;11.12;;;;;;;12.11;64.88;101424.44;1721003;83;25800;-59
2021/09/11 04:17:37;;;;;;;18.70;9.45;;;;;;;12.10;65.02;101422.25;1722637;83;25800;-59
2021/09/11 04:20:06;;;;;;;20.30;9.65;;;;;;;12.08;65.06;101420.17;1720231;82;27474;-60
2021/09/11 04:22:33;;;;;;;19.60;9.80;;;;;;;12.08;65.15;101419.33;1722384;83;25710;-60
2021/09/11 04:25:00;;;;;;;29.20;11.25;;;;;;;12.09;65.39;101417.84;1693013;83;25786;-59
2021/09/11 04:27:27;;;;;;;20.00;10.08;;;;;;;12.12;65.55;101418.94;1690594;84;25802;-59
2021/09/11 04:29:54;;;;;;;19.85;9.40;;;;;;;12.17;65.68;101415.84;1685673;84;25805;-59
2021/09/11 04:32:21;;;;;;;23.20;10.03;;;;;;;12.24;65.93;101421.08;1689922;84;27479;-59
2021/09/11 04:34:50;;;;;;;18.87;9.80;;;;;;;12.30;66.22;101421.05;1686927;84;25727;-60
2021/09/11 04:37:17;;;;;;;32.90;11.00;;;;;;;12.34;66.16;101420.65;1684681;85;25677;-60
2021/09/11 04:39:44;;;;;;;21.25;10.30;;;;;;;12.43;66.11;101419.49;1684877;85;25811;-58
2021/09/11 04:42:11;;;;;;;25.88;9.78;;;;;;;12.48;66.01;101420.81;1660929;86;25745;-58
2021/09/11 04:44:38;;;;;;;22.45;10.58;;;;;;;12.56;66.24;101424.68;1662228;86;27483;-58
2021/09/11 04:47:05;;;;;;;22.30;9.88;;;;;;;12.61;66.13;101426.47;1673397;85;25852;-59
2021/09/11 04:49:32;;;;;;;25.30;10.72;;;;;;;12.65;65.96;101424.72;1662054;85;25769;-59
2021/09/11 04:51:59;;;;;;;25.68;11.30;;;;;;;12.70;66.18;101427.53;1646834;86;25812;-59
2021/09/11 04:54:26;;;;;;;26.23;10.30;;;;;;;12.76;66.04;101425.16;1707848;83;25888;-59
2021/09/11 04:56:52;;;;;;;32.42;10.68;;;;;;;12.82;65.78;101425.09;1705359;83;27198;-62
2021/09/11 04:59:25;;;;;;;33.23;10.75;;;;;;;12.87;65.89;101424.68;1704870;83;25861;-61
2021/09/11 05:01:56;;;;;;;31.45;11.15;;;;;;;12.92;65.74;101425.15;1703324;84;25456;-60
2021/09/11 05:04:24;;;;;;;35.78;12.70;;;;;;;12.97;65.41;101421.53;1699710;83;26754;-59
2021/09/11 05:06:51;;;;;;;28.35;11.68;;;;;;;13.02;65.11;101423.34;1686651;83;25866;-58
2021/09/11 05:09:20;;;;;;;36.23;12.25;;;;;;;13.09;64.85;101424.98;1682678;85;28189;-61
2021/09/11 05:11:54;;;;;;;32.35;13.32;;;;;;;13.13;64.51;101425.92;1661835;84;25852;-61
2021/09/11 05:14:22;;;;;;;31.70;11.95;;;;;;;13.18;64.33;101422.81;1679841;83;25632;-62
2021/09/11 05:16:54;;;;;;;31.05;12.00;;;;;;;13.22;64.06;101419.37;1679828;84;25834;-61
2021/09/11 05:19:21;;;;;;;35.30;13.30;;;;;;;13.22;63.85;101419.37;1679365;84;25729;-62
2021/09/11 05:22:04;;;;;;;37.63;12.20;;;;;;;13.20;63.80;101415.94;1677513;83;25930;-62
2021/09/11 05:24:36;;;;;;;30.23;13.72;;;;;;;13.17;63.79;101422.48;1704681;83;25784;-60
2021/09/11 05:27:07;;;;;;;28.20;11.97;;;;;;;13.19;63.87;101422.33;1690143;83;25730;-61
2021/09/11 05:29:39;;;;;;;28.83;12.65;;;;;;;13.20;64.06;101421.34;1673751;84;26068;-58
2021/09/11 05:32:07;;;;;;;23.95;10.32;;;;;;;13.12;63.96;101422.89;1648563;84;25802;-58
2021/09/11 05:34:34;;;;;;;30.92;10.25;;;;;;;13.06;64.40;101426.12;1638099;85;27455;-59
2021/09/11 05:37:01;;;;;;;23.55;9.80;;;;;;;12.99;64.52;101422.26;1641610;87;25865;-58
2021/09/11 05:39:28;;;;;;;33.67;10.70;;;;;;;12.97;65.04;101427.80;1639509;86;25784;-58
2021/09/11 05:41:54;;;;;;;24.98;9.23;;;;;;;12.94;65.10;101425.88;1678784;85;26035;-59
2021/09/11 05:44:21;;;;;;;26.85;8.95;;;;;;;12.94;65.22;101424.52;1692486;84;25818;-59
2021/09/11 05:46:48;;;;;;;21.95;9.18;;;;;;;12.98;65.18;101424.59;1699646;83;27562;-58
2021/09/11 05:49:15;;;;;;;32.38;10.10;;;;;;;13.09;65.24;101429.91;1699957;84;25724;-58
2021/09/11 05:51:42;;;;;;;26.30;8.90;;;;;;;13.20;65.12;101434.34;1697313;83;25782;-58
2021/09/11 05:54:09;;;;;;;23.22;9.45;;;;;;;13.34;64.94;101433.62;1714740;83;25808;-58
2021/09/11 05:56:36;;;;;;;29.20;8.93;;;;;;;13.44;64.41;101431.83;1718713;83;26246;-58
2021/09/11 05:59:03;;;;;;;19.20;9.75;;;;;;;13.57;64.00;101438.33;1685656;85;27518;-59
2021/09/11 06:01:30;;;;;;;29.75;10.20;;;;;;;13.67;63.70;101434.27;1699120;84;25762;-60
2021/09/11 06:04:02;;;;;;;31.17;10.25;;;;;;;13.79;63.35;101429.10;1705198;84;25840;-60
2021/09/11 06:06:29;;;;;;;33.58;10.75;;;;;;;13.86;63.05;101430.23;1700055;84;25744;-60
2021/09/11 06:08:56;;;;;;;38.35;9.73;;;;;;;13.92;62.22;101434.23;1697105;82;25705;-58
2021/09/11 06:11:23;;;;;;;22.10;9.13;;;;;;;13.94;62.15;101428.16;1718917;83;28107;-59
2021/09/11 06:13:50;;;;;;;28.55;10.25;;;;;;;14.03;62.04;101429.17;1719006;83;25778;-59
2021/09/11 06:16:17;;;;;;;25.72;10.78;;;;;;;14.16;61.64;101422.98;1710943;83;25751;-59
2021/09/11 06:18:44;;;;;;;20.77;9.30;;;;;;;14.24;61.23;101430.36;1692682;83;26501;-58
2021/09/11 06:21:31;;;;;;;33.23;9.88;;;;;;;14.29;60.92;101432.16;1718072;83;26156;-62
2021/09/11 06:23:53;;;;;;;22.65;9.85;;;;;;;14.34;60.43;101433.07;1684153;83;26194;-62
2021/09/11 06:26:22;;;;;;;34.95;10.65;;;;;;;14.40;60.71;101425.20;1699200;84;25797;-61
2021/09/11 06:28:49;;;;;;;31.75;10.78;;;;;;;14.50;60.44;101428.39;1696030;83;25535;-59
2021/09/11 06:31:33;;;;;;;29.55;11.57;;;;;;;14.58;60.23;101424.96;1702977;83;25806;-62
2021/09/11 06:34:00;;;;;;;;;;;;;;;14.62;59.13;101425.00;1688613;83;25737;-60
2021/09/11 06:36:29;;;;;;;24.95;11.10;;;;;;;14.62;58.51;101426.36;1680382;85;27528;-63
2021/09/11 06:39:04;;;;;;;34.30;10.68;;;;;;;14.61;58.58;101428.23;1679888;85;25901;-61
2021/09/11 06:41:44;;;;;;;40.95;11.05;;;;;;;14.67;58.93;101431.72;1679017;85;25896;-61
2021/09/11 06:44:13;;;;;;;29.60;11.25;;;;;;;14.73;58.87;101427.58;1685538;83;26218;-61
2021/09/11 06:46:42;;;;;;;34.38;11.28;;;;;;;14.82;58.81;101435.33;1691700;83;25804;-62
2021/09/11 06:49:15;;;;;;;27.20;11.55;;;;;;;14.88;58.73;101432.02;1683397;84;27954;-62
2021/09/11 06:51:53;;;;;;;37.55;12.47;;;;;;;14.77;58.79;101399.70;1687739;84;25833;-58
2021/09/11 06:54:20;;;;;;;29.82;11.68;;;;;;;15.05;58.71;101429.04;1704181;83;25796;-61
2021/09/11 06:56:46;;;;;;;29.87;12.35;;;;;;;15.12;58.63;101429.27;1710871;83;26652;-60
2021/09/11 06:59:13;;;;;;;37.95;13.38;;;;;;;15.19;58.59;101427.69;1710588;83;25867;-60
2021/09/11 07:01:40;;;;;;;33.78;12.07;;;;;;;15.25;58.62;101429.79;1706540;83;28251;-60
2021/09/11 07:04:12;;;;;;;35.13;12.33;;;;;;;15.34;58.62;101422.11;1707937;83;25943;-63
2021/09/11 07:06:42;;;;;;;36.73;12.65;;;;;;;15.44;58.66;101430.17;1702746;82;25887;-60
2021/09/11 07:09:10;;;;;;;28.38;11.43;;;;;;;15.56;58.45;101426.73;1684182;83;26067;-59
2021/09/11 07:11:37;;;;;;;24.25;12.37;;;;;;;15.68;57.94;101425.16;1680493;84;25845;-58
2021/09/11 07:14:16;;;;;;;36.90;12.35;;;;;;;15.76;57.92;101426.12;1680693;84;27481;-62
2021/09/11 07:16:43;;;;;;;39.30;11.43;;;;;;;15.87;57.66;101423.70;1682625;83;25744;-60
2021/09/11 07:19:11;;;;;;;34.45;13.68;;;;;;;15.97;57.46;101423.61;1704567;83;25797;-61
2021/09/11 07:21:38;;;;;;;33.33;11.53;;;;;;;16.05;57.49;101422.84;1713288;83;26208;-60
2021/09/11 07:24:05;;;;;;;33.98;13.50;;;;;;;16.15;57.36;101424.97;1713009;82;25753;-59
2021/09/11 07:26:34;;;;;;;38.67;13.78;;;;;;;16.23;57.27;101418.73;1712618;83;28118;-61
2021/09/11 07:29:13;;;;;;;35.92;12.05;;;;;;;16.31;57.27;101420.18;1692916;82;25761;-60
2021/09/11 07:31:55;;;;;;;32.55;13.08;;;;;;;16.43;57.25;101412.63;1686903;83;25864;-64
2021/09/11 07:34:23;;;;;;;31.42;13.03;;;;;;;16.53;57.16;101417.45;1701775;82;26973;-59
2021/09/11 07:36:50;;;;;;;32.10;12.95;;;;;;;16.65;56.97;101418.02;1696970;84;25883;-60
2021/09/11 07:39:16;;;;;;;32.65;12.43;;;;;;;16.80;56.20;101418.77;1696319;84;27460;-60
2021/09/11 07:41:43;;;;;;;31.50;13.03;;;;;;;16.90;56.20;101418.16;1697538;84;26506;-60
2021/09/11 07:44:10;;;;;;;34.85;11.90;;;;;;;17.00;56.13;101409.89;1698323;84;25812;-60
2021/09/11 07:46:37;;;;;;;31.20;12.30;;;;;;;17.13;56.09;101409.44;1694565;83;25957;-60
2021/09/11 07:49:05;;;;;;;34.43;11.65;;;;;;;17.25;55.83;101404.05;1698766;83;25701;-60
2021/09/11 07:51:44;;;;;;;34.63;13.80;;;;;;;17.38;55.55;101410.38;1686116;83;27931;-64
2021/09/11 07:54:04;;;;;;;34.03;12.63;;;;;;;17.50;55.12;101410.42;1671585;85;26329;-59
2021/09/11 07:56:31;;;;;;;27.10;12.50;;;;;;;17.60;54.89;101402.63;1682061;84;25861;-61
2021/09/11 07:59:21;;;;;;;39.90;12.82;;;;;;;17.73;54.83;101400.77;1699683;83;26520;-61
2021/09/11 08:01:45;;;;;;;31.80;12.33;;;;;;;17.83;54.35;101404.19;1675905;84;25792;-60
2021/09/11 08:04:14;;;;;;;47.75;13.03;;;;;;;17.96;54.44;101401.83;1666706;85;28448;-58
2021/09/11 08:06:40;;;;;;;42.27;13.55;;;;;;;18.11;53.67;101406.59;1669434;85;25845;-59
2021/09/11 08:09:07;;;;;;;27.42;12.30;;;;;;;18.20;53.63;101401.48;1675490;85;25833;-59
2021/09/11 08:11:34;;;;;;;34.25;11.48;;;;;;;18.33;53.30;101394.67;1681799;85;25816;-59
2021/09/11 08:14:02;;;;;;;27.82;11.57;;;;;;;18.45;53.28;101399.58;1681418;85;25786;-58
2021/09/11 08:16:30;;;;;;;30.08;12.65;;;;;;;18.60;52.65;101390.72;1679825;83;28222;-60
2021/09/11 08:18:57;;;;;;;36.25;12.70;;;;;;;18.74;52.26;101393.20;1687338;83;25768;-59
2021/09/11 08:21:23;;;;;;;36.33;13.30;;;;;;;18.90;51.74;101390.94;1682836;83;26181;-59
2021/09/11 08:23:53;;;;;;;30.00;13.18;;;;;;;19.05;51.44;101389.72;1683199;83;26572;-61
2021/09/11 08:26:20;;;;;;;31.48;13.38;;;;;;;19.18;51.43;101385.06;1680442;83;25887;-60
2021/09/11 08:28:48;;;;;;;28.42;12.88;;;;;;;19.39;51.61;101388.52;1680704;84;27491;-59
2021/09/11 08:31:16;;;;;;;23.40;11.80;;;;;;;19.63;51.31;101382.06;1685332;83;25769;-59
2021/09/11 08:33:43;;;;;;;31.17;12.75;;;;;;;19.83;50.55;101377.48;1688990;83;25849;-60
2021/09/11 08:36:10;;;;;;;36.17;11.88;;;;;;;20.07;49.41;101376.97;1698963;83;26444;-59
2021/09/11 08:38:37;;;;;;;31.62;11.28;;;;;;;20.26;49.44;101379.72;1710550;82;25772;-61
2021/09/11 08:41:06;;;;;;;33.08;12.88;;;;;;;20.46;49.18;101380.85;1697635;83;28238;-59
2021/09/11 08:43:35;;;;;;;33.60;12.18;;;;;;;20.63;48.68;101377.44;1696795;84;25805;-61
2021/09/11 08:46:03;;;;;;;33.25;11.97;;;;;;;20.89;48.16;101372.53;1708722;83;25864;-59
2021/09/11 08:48:30;;;;;;;27.15;11.53;;;;;;;21.10;47.88;101365.77;1689408;83;25845;-60
2021/09/11 08:50:58;;;;;;;36.38;12.50;;;;;;;21.35;47.47;101361.85;1690331;83;25711;-60
2021/09/11 08:53:25;;;;;;;32.33;11.93;;;;;;;21.60;47.48;101353.30;1710759;83;26916;-59
2021/09/11 08:55:52;;;;;;;27.20;11.68;;;;;;;21.86;46.78;101353.55;1710625;83;26283;-59
2021/09/11 08:58:21;;;;;;;36.48;11.68;;;;;;;22.15;44.75;101351.67;1704990;83;25820;-60
2021/09/11 09:00:54;;;;;;;33.63;12.28;;;;;;;22.36;44.77;101343.91;1703846;83;25776;-59
2021/09/11 09:03:30;;;;;;;;;;;;;;;22.64;44.77;101342.20;1713457;83;25879;-59
2021/09/11 09:06:29;;;;;;;32.70;11.40;;;;;;;22.92;44.41;101339.40;1710692;83;27463;-60
2021/09/11 09:09:11;;;;;;;36.48;12.20;;;;;;;23.26;43.85;101333.52;1704159;83;26518;-61
2021/09/11 09:11:51;;;;;;;32.55;11.43;;;;;;;23.63;43.39;101329.58;1686756;83;25852;-62
2021/09/11 09:14:19;;;;;;;34.48;11.15;;;;;;;24.02;43.03;101327.39;1680680;84;25810;-60
2021/09/11 09:16:51;;;;;;;34.33;11.45;;;;;;;24.41;42.47;101328.09;1684457;83;26473;-63
2021/09/11 09:19:23;;;;;;;24.10;10.35;;;;;;;24.78;40.77;101324.30;1689479;83;26118;-61
2021/09/11 09:21:55;;;;;;;32.05;10.53;;;;;;;25.16;39.02;101319.34;1706668;83;25877;-61
2021/09/11 09:24:36;;;;;;;27.75;9.40;;;;;;;25.67;38.26;101323.61;1707299;83;26467;-61
2021/09/11 09:27:06;;;;;;;34.83;9.98;;;;;;;26.36;37.57;101320.88;1670452;85;26180;-60
2021/09/11 09:29:40;;;;;;;28.67;10.38;;;;;;;27.17;35.49;101324.38;1704162;82;25792;-60
2021/09/11 09:32:07;;;;;;;;;;;;;;;27.92;34.52;101317.20;1714429;83;28257;-61
2021/09/11 09:34:40;;;;;;;29.30;11.90;;;;;;;28.43;32.38;101318.92;1692853;83;25776;-63
2021/09/11 09:37:12;;;;;;;31.23;10.35;;;;;;;28.76;32.41;101311.92;1680070;85;25759;-61
2021/09/11 09:39:46;;;;;;;28.00;10.48;;;;;;;29.13;33.32;101307.92;1677168;85;25743;-63
2021/09/11 09:42:19;;;;;;;25.00;9.13;;;;;;;29.75;32.67;101298.80;1680327;85;25817;-63
2021/09/11 09:44:54;;;;;;;33.13;9.33;;;;;;;30.40;31.13;101301.15;1680948;84;28311;-61
2021/09/11 09:47:28;;;;;;;23.02;9.30;;;;;;;30.98;30.78;101297.97;1693657;83;25816;-68
2021/09/11 09:50:19;;;;;;;21.45;9.58;;;;;;;31.34;30.00;101268.65;1682665;85;25369;-65
2021/09/11 09:52:57;;;;;;;20.30;7.97;;;;;;;32.07;29.32;101288.13;1683978;83;26477;-63
2021/09/11 09:55:28;;;;;;;27.32;7.50;;;;;;;32.66;28.29;101286.22;1711005;83;26939;-62
2021/09/11 09:57:56;;;;;;;25.80;7.28;;;;;;;33.17;27.34;101293.06;1712090;83;27448;-61
2021/09/11 10:00:25;;;;;;;21.12;7.30;;;;;;;33.79;25.34;101284.72;1713024;83;25839;-61
2021/09/11 10:02:53;;;;;;;28.07;7.15;;;;;;;34.11;25.27;101284.42;1712048;83;25785;-62
2021/09/11 10:05:24;;;;;;;18.45;7.22;;;;;;;34.47;24.52;101277.91;1713177;83;26262;-60
2021/09/11 10:08:08;;;;;;;18.12;6.85;;;;;;;34.88;24.27;101283.28;1712795;81;25862;-60
2021/09/11 10:10:40;;;;;;;18.48;8.33;;;;;;;35.14;22.71;101275.33;1711586;83;27439;-61
2021/09/11 10:13:22;;;;;;;19.62;7.65;;;;;;;35.38;21.52;101283.23;1686308;83;25869;-63
2021/09/11 10:16:02;;;;;;;15.43;7.72;;;;;;;35.59;21.80;101283.10;1707195;83;25852;-65
2021/09/11 10:18:42;;;;;;;18.17;8.18;;;;;;;35.92;22.73;101270.77;1670685;84;26678;-65
2021/09/11 10:21:37;;;;;;;25.77;8.85;;;;;;;36.37;21.57;101273.31;1707449;83;25749;-64
2021/09/11 10:24:15;;;;;;;22.98;9.00;;;;;;;36.43;20.88;101271.31;1707129;83;27897;-61
2021/09/11 10:26:55;;;;;;;21.87;7.65;;;;;;;36.52;20.99;101268.11;1678513;83;25743;-63
2021/09/11 10:29:49;;;;;;;19.73;8.03;;;;;;;36.54;20.48;101262.20;1644012;85;26557;-59
2021/09/11 10:32:21;;;;;;;19.30;7.70;;;;;;;36.51;20.21;101256.64;1688395;83;26494;-60
2021/09/11 10:35:00;;;;;;;;;;;;;;;36.89;20.49;101254.44;1715347;83;26272;-61
2021/09/11 10:37:50;;;;;;;11.43;6.65;;;;;;;37.16;18.60;101255.16;1715394;83;27458;-62
2021/09/11 10:40:30;;;;;;;20.25;5.87;;;;;;;37.71;19.38;101255.90;1683758;83;26182;-63
2021/09/11 10:43:29;;;;;;;18.27;5.03;;;;;;;37.77;18.34;101252.42;1656743;83;25839;-65
2021/09/11 10:46:11;;;;;;;9.08;4.12;;;;;;;37.83;16.76;101244.19;1670509;85;25757;-62
2021/09/11 10:48:54;;;;;;;10.80;4.08;;;;;;;37.84;16.46;101240.80;1659829;83;25379;-63
2021/09/11 10:51:38;;;;;;;11.57;5.65;;;;;;;37.78;16.11;101235.03;1685323;83;27844;-62
2021/09/11 10:54:24;;;;;;;16.80;4.55;;;;;;;38.00;15.43;101239.38;1702511;83;25776;-63
2021/09/11 10:57:01;;;;;;;13.93;4.20;;;;;;;37.87;14.47;101239.63;1708376;82;26533;-63
2021/09/11 10:59:32;;;;;;;10.18;4.42;;;;;;;37.73;15.48;101233.97;1708741;83;25814;-62
2021/09/11 11:02:11;;;;;;;12.55;4.53;;;;;;;38.19;15.41;101232.81;1685111;83;25951;-62
2021/09/11 11:04:49;;;;;;;13.03;4.22;;;;;;;38.57;15.41;101229.78;1670433;85;27408;-60
2021/09/11 11:07:27;;;;;;;14.43;3.98;;;;;;;38.71;13.72;101227.48;1680149;83;25710;-61
2021/09/11 11:10:01;;;;;;;10.13;4.15;;;;;;;38.72;14.03;101217.34;1653300;85;25770;-61
2021/09/11 11:12:33;;;;;;;13.15;4.45;;;;;;;38.75;13.87;101224.31;1680116;84;26528;-61
2021/09/11 11:15:08;;;;;;;9.58;3.90;;;;;;;38.73;13.54;101220.98;1679234;85;26320;-62
2021/09/11 11:17:38;;;;;;;14.65;5.22;;;;;;;38.54;14.32;101221.97;1679579;85;27512;-61
2021/09/11 11:20:07;;;;;;;7.78;4.40;;;;;;;38.63;13.81;101207.42;1660357;84;25790;-62
2021/09/11 11:22:40;;;;;;;12.88;4.67;;;;;;;38.47;14.08;101210.33;1679552;85;25772;-63
2021/09/11 11:25:35;;;;;;;14.63;4.87;;;;;;;38.35;14.04;101206.08;1679725;84;25805;-62
2021/09/11 11:28:08;;;;;;;11.60;4.47;;;;;;;38.47;14.10;101196.28;1678765;85;25823;-62
2021/09/11 11:30:41;;;;;;;13.62;5.12;;;;;;;38.65;13.74;101193.89;1702713;83;27476;-62
2021/09/11 11:33:08;;;;;;;7.85;4.17;;;;;;;38.55;14.08;101191.31;1682061;84;25911;-63